Time;durP1;ratioP1;P1;durP2;ratioP2;P2;SDS_P1;SDS_P2;PMS_P1;PMS_P2;Temp;Humidity;BMP_temperature;BMP_pressure;BME280_temperature;BME280_humidity;BME280_pressure;Samples;Min_cycle;Max_cycle;Signal;HPM_P1;HPM_P2
2021/04/27 00:01:06;;;;;;;6.25;3.88;;;7.30;49.50;;;;;;5089794;28;20031;-92
2021/04/27 00:03:33;;;;;;;7.18;4.03;;;7.20;49.60;;;;;;5100832;28;20100;-88
2021/04/27 00:05:59;;;;;;;7.37;3.70;;;7.30;49.60;;;;;;5092555;28;20037;-87
2021/04/27 00:08:25;;;;;;;4.13;3.60;;;7.30;49.50;;;;;;5089750;28;20047;-89
2021/04/27 00:10:51;;;;;;;6.22;4.05;;;7.30;49.90;;;;;;5084855;28;20039;-92
2021/04/27 00:13:17;;;;;;;5.82;3.58;;;7.30;51.10;;;;;;5109270;27;20380;-87
2021/04/27 00:15:43;;;;;;;6.72;4.30;;;7.30;52.50;;;;;;5102564;28;20028;-90
2021/04/27 00:18:09;;;;;;;6.22;4.07;;;7.10;54.20;;;;;;5108945;28;20023;-87
2021/04/27 00:20:35;;;;;;;6.38;3.42;;;7.00;55.40;;;;;;5123387;28;20046;-87
2021/04/27 00:23:01;;;;;;;8.80;3.42;;;6.80;56.50;;;;;;5116713;28;20024;-88
2021/04/27 00:25:27;;;;;;;9.00;4.13;;;6.70;57.00;;;;;;5116136;28;20023;-85
2021/04/27 00:27:55;;;;;;;6.28;3.72;;;6.70;57.50;;;;;;5115262;28;20037;-84
2021/04/27 00:30:22;;;;;;;6.60;3.58;;;6.70;58.20;;;;;;5114098;28;20024;-87
2021/04/27 00:32:48;;;;;;;5.93;3.30;;;6.70;58.70;;;;;;5115539;28;20035;-84
2021/04/27 00:35:16;;;;;;;9.30;4.95;;;6.70;59.10;;;;;;5113405;28;20051;-84
2021/04/27 00:37:42;;;;;;;7.05;4.40;;;6.70;59.90;;;;;;5113943;28;20016;-84
2021/04/27 00:40:10;;;;;;;5.88;4.30;;;6.70;60.40;;;;;;5113938;28;20074;-85
2021/04/27 00:42:41;;;;;;;6.68;4.32;;;6.60;61.00;;;;;;5113964;28;20064;-80
2021/04/27 00:45:09;;;;;;;5.75;4.40;;;6.70;61.50;;;;;;5113323;28;20020;-82
2021/04/27 00:47:36;;;;;;;8.85;4.35;;;6.60;61.70;;;;;;5116044;28;20027;-87
2021/04/27 00:50:04;;;;;;;8.02;4.90;;;6.70;62.10;;;;;;5114971;28;20100;-86
2021/04/27 00:52:30;;;;;;;6.28;3.85;;;6.60;62.40;;;;;;5106000;28;20495;-83
2021/04/27 00:54:56;;;;;;;6.28;4.45;;;6.70;62.60;;;;;;5117407;27;20034;-83
2021/04/27 00:57:22;;;;;;;7.50;4.50;;;6.50;63.40;;;;;;5115837;27;20070;-82
2021/04/27 00:59:49;;;;;;;7.70;4.37;;;6.40;64.10;;;;;;5121141;27;20046;-84
2021/04/27 01:02:15;;;;;;;6.25;4.65;;;6.30;64.60;;;;;;5118775;27;20251;-85
2021/04/27 01:04:41;;;;;;;10.18;6.18;;;6.30;65.00;;;;;;5119992;28;20020;-86
2021/04/27 01:07:09;;;;;;;6.93;4.72;;;6.20;65.50;;;;;;5097243;28;20051;-83
2021/04/27 01:09:47;;;;;;;;;;;6.20;66.00;;;;;;5100000;28;20020;-85
2021/04/27 01:12:27;;;;;;;9.80;4.43;;;6.10;65.30;;;;;;5116615;28;20295;-83
2021/04/27 01:15:05;;;;;;;9.15;4.97;;;5.80;67.80;;;;;;5107788;28;20019;-82
2021/04/27 01:17:31;;;;;;;9.27;4.88;;;5.60;68.70;;;;;;5113705;28;20388;-83
2021/04/27 01:20:23;;;;;;;8.35;5.05;;;5.70;68.70;;;;;;5112206;27;20493;-82
2021/04/27 01:22:57;;;;;;;9.10;5.82;;;5.80;68.90;;;;;;5135644;27;20064;-87
2021/04/27 01:25:46;;;;;;;8.68;4.50;;;5.90;68.80;;;;;;5135008;28;20026;-85
2021/04/27 01:28:12;;;;;;;9.60;5.00;;;5.80;69.40;;;;;;5120213;27;20442;-88
2021/04/27 01:30:40;;;;;;;8.15;4.05;;;5.80;69.80;;;;;;5134054;28;20020;-84
2021/04/27 01:33:09;;;;;;;9.52;5.10;;;5.70;70.20;;;;;;5115995;28;20480;-86
2021/04/27 01:35:37;;;;;;;11.55;6.68;;;5.60;71.40;;;;;;5141760;27;20015;-91
2021/04/27 01:38:05;;;;;;;8.25;4.68;;;5.50;72.10;;;;;;5125389;28;20027;-88
2021/04/27 01:40:31;;;;;;;11.73;5.13;;;5.50;72.50;;;;;;5137278;27;20019;-86
2021/04/27 01:42:59;;;;;;;7.47;4.68;;;5.40;73.00;;;;;;5118679;28;20073;-87
2021/04/27 01:45:27;;;;;;;8.82;4.85;;;5.30;73.40;;;;;;5133989;27;20027;-84
2021/04/27 01:47:56;;;;;;;;;;;5.30;74.00;;;;;;5134226;27;20391;-81
2021/04/27 01:50:23;;;;;;;8.38;4.90;;;5.20;73.10;;;;;;5114798;27;19904;-86
2021/04/27 01:52:50;;;;;;;7.28;4.97;;;5.30;74.40;;;;;;5134145;28;20019;-86
2021/04/27 01:55:17;;;;;;;9.10;5.50;;;5.40;74.50;;;;;;5134004;27;20030;-85
2021/04/27 01:57:43;;;;;;;6.70;5.32;;;5.50;74.80;;;;;;5137249;27;20056;-84
2021/04/27 02:00:12;;;;;;;7.10;5.82;;;5.30;75.60;;;;;;5135986;28;20062;-86
2021/04/27 02:02:38;;;;;;;10.18;6.05;;;5.20;76.10;;;;;;5135734;28;20090;-84
2021/04/27 02:05:06;;;;;;;7.82;5.00;;;5.10;77.30;;;;;;5139251;27;20075;-84
2021/04/27 02:07:34;;;;;;;6.38;5.10;;;5.00;77.80;;;;;;5117924;27;20043;-82
2021/04/27 02:10:05;;;;;;;8.45;5.38;;;4.90;78.10;;;;;;5141310;27;20027;-89
2021/04/27 02:12:34;;;;;;;10.90;5.68;;;4.90;78.30;;;;;;5125195;27;20011;-86
2021/04/27 02:15:00;;;;;;;9.48;6.38;;;4.90;78.70;;;;;;5137234;27;20030;-84
2021/04/27 02:17:36;;;;;;;6.97;5.28;;;4.90;79.10;;;;;;5122480;27;20054;-86
2021/04/27 02:20:04;;;;;;;8.48;6.63;;;4.90;79.50;;;;;;5145968;27;20033;-84
2021/04/27 02:22:30;;;;;;;8.52;6.22;;;5.00;79.70;;;;;;5127763;27;20495;-85
2021/04/27 02:24:59;;;;;;;9.85;6.50;;;5.00;80.00;;;;;;5138192;27;20026;-89
2021/04/27 02:27:25;;;;;;;7.80;5.70;;;5.00;80.20;;;;;;5138742;27;20026;-83
2021/04/27 02:29:53;;;;;;;8.90;6.15;;;5.00;80.60;;;;;;5118540;27;20027;-85
2021/04/27 02:32:22;;;;;;;8.07;5.85;;;5.00;81.00;;;;;;5120191;27;20023;-85
2021/04/27 02:34:49;;;;;;;9.27;5.22;;;4.90;81.20;;;;;;5136654;27;20026;-80
2021/04/27 02:37:18;;;;;;;11.02;5.78;;;4.70;81.90;;;;;;5136666;27;20471;-85
2021/04/27 02:39:44;;;;;;;6.97;5.90;;;4.50;83.00;;;;;;5136843;27;20460;-87
2021/04/27 02:42:11;;;;;;;10.32;8.20;;;4.40;83.70;;;;;;5137114;27;20480;-85
2021/04/27 02:44:37;;;;;;;8.65;5.55;;;4.30;84.20;;;;;;5137268;27;20019;-84
2021/04/27 02:47:04;;;;;;;10.15;5.80;;;4.30;85.00;;;;;;5137498;27;20033;-87
2021/04/27 02:49:30;;;;;;;9.43;6.10;;;4.30;85.40;;;;;;5144200;27;20037;-87
2021/04/27 02:51:55;;;;;;;10.98;6.38;;;4.20;85.50;;;;;;5136455;27;20395;-84
2021/04/27 02:54:21;;;;;;;6.75;5.18;;;4.20;86.00;;;;;;5133103;27;20031;-86
2021/04/27 02:56:47;;;;;;;7.32;5.85;;;4.10;86.40;;;;;;5139545;27;20015;-87
2021/04/27 02:59:13;;;;;;;8.63;6.40;;;4.20;86.90;;;;;;5138330;27;20035;-86
2021/04/27 03:01:39;;;;;;;8.35;6.22;;;4.20;87.30;;;;;;5139962;27;20016;-88
2021/04/27 03:04:06;;;;;;;10.43;6.50;;;4.30;87.50;;;;;;5142132;27;20019;-89
2021/04/27 03:06:32;;;;;;;10.63;6.78;;;4.40;87.40;;;;;;5144902;27;20024;-89
2021/04/27 03:08:59;;;;;;;8.70;7.32;;;4.50;87.10;;;;;;5131434;27;20412;-88
2021/04/27 03:11:25;;;;;;;10.18;6.10;;;4.60;86.90;;;;;;5148245;27;20019;-87
2021/04/27 03:13:53;;;;;;;11.10;6.65;;;4.60;86.20;;;;;;5142799;27;20024;-86
2021/04/27 03:16:20;;;;;;;8.63;6.10;;;4.50;86.20;;;;;;5149948;27;20029;-86
2021/04/27 03:18:46;;;;;;;10.05;7.60;;;4.50;86.40;;;;;;5143179;27;20076;-83
2021/04/27 03:21:12;;;;;;;8.32;6.30;;;4.50;86.60;;;;;;5136931;27;20031;-84
2021/04/27 03:23:38;;;;;;;8.10;5.65;;;4.40;86.90;;;;;;5136871;27;20376;-85
2021/04/27 03:26:04;;;;;;;9.15;6.88;;;4.50;87.10;;;;;;5128675;27;20098;-85
2021/04/27 03:28:30;;;;;;;10.85;6.93;;;4.50;87.10;;;;;;5136689;27;20015;-83
2021/04/27 03:30:56;;;;;;;11.85;8.25;;;4.40;87.50;;;;;;5137411;27;20034;-83
2021/04/27 03:33:22;;;;;;;12.10;8.75;;;4.40;87.90;;;;;;5118610;27;20024;-82
2021/04/27 03:35:48;;;;;;;12.10;9.18;;;4.40;88.30;;;;;;5135338;27;20467;-83
2021/04/27 03:38:14;;;;;;;11.70;9.10;;;4.50;88.60;;;;;;5135792;27;20019;-83
2021/04/27 03:40:41;;;;;;;13.30;9.80;;;4.50;88.80;;;;;;5138992;27;20587;-83
2021/04/27 03:43:08;;;;;;;13.45;9.02;;;4.50;89.30;;;;;;5135406;27;20072;-83
2021/04/27 03:45:35;;;;;;;10.43;8.32;;;4.50;89.30;;;;;;5135156;27;20521;-83
2021/04/27 03:48:13;;;;;;;10.57;8.32;;;4.60;89.20;;;;;;5117210;27;20019;-84
2021/04/27 03:50:40;;;;;;;10.77;8.60;;;4.60;89.40;;;;;;5135200;27;20030;-83
2021/04/27 03:53:06;;;;;;;14.00;10.20;;;4.70;89.60;;;;;;5135736;27;20033;-84
2021/04/27 03:55:32;;;;;;;12.65;11.35;;;4.70;89.50;;;;;;5131327;27;20103;-84
2021/04/27 03:57:58;;;;;;;16.08;10.75;;;4.70;89.80;;;;;;5135579;27;20609;-84
2021/04/27 04:00:24;;;;;;;16.42;11.75;;;4.70;89.50;;;;;;5135605;27;20114;-84
2021/04/27 04:02:50;;;;;;;17.23;12.02;;;4.60;89.20;;;;;;5135460;27;20015;-84
2021/04/27 04:05:16;;;;;;;14.88;12.07;;;4.50;89.00;;;;;;5135890;27;20079;-83
2021/04/27 04:07:42;;;;;;;16.70;11.90;;;4.40;89.70;;;;;;5136294;27;20035;-85
2021/04/27 04:10:13;;;;;;;15.20;12.18;;;4.40;90.10;;;;;;5135261;27;20079;-84
2021/04/27 04:12:40;;;;;;;15.38;11.30;;;4.40;90.20;;;;;;5117008;27;20024;-84
2021/04/27 04:15:08;;;;;;;13.53;9.93;;;4.20;90.60;;;;;;5135601;27;20074;-83
2021/04/27 04:17:34;;;;;;;11.65;8.75;;;4.30;90.70;;;;;;5133027;27;20027;-83
2021/04/27 04:20:05;;;;;;;13.57;8.85;;;4.10;90.40;;;;;;5135381;27;20110;-84
2021/04/27 04:22:30;;;;;;;11.65;9.25;;;3.90;90.70;;;;;;5135651;27;20012;-83
2021/04/27 04:24:56;;;;;;;13.20;7.93;;;3.80;91.00;;;;;;5137892;27;20120;-83
2021/04/27 04:27:23;;;;;;;9.80;7.60;;;3.60;91.00;;;;;;5134997;27;20027;-88
2021/04/27 04:29:49;;;;;;;12.43;9.88;;;3.50;91.00;;;;;;5135155;27;20062;-85
2021/04/27 04:32:14;;;;;;;12.05;9.40;;;3.40;91.10;;;;;;5116506;27;20019;-86
2021/04/27 04:34:41;;;;;;;12.23;9.57;;;3.30;91.40;;;;;;5135716;27;20029;-86
2021/04/27 04:37:08;;;;;;;14.02;9.82;;;3.30;91.60;;;;;;5136091;27;20048;-85
2021/04/27 04:39:34;;;;;;;13.20;10.33;;;3.30;91.80;;;;;;5135291;27;20034;-87
2021/04/27 04:42:01;;;;;;;11.02;8.95;;;3.40;91.80;;;;;;5147313;27;20364;-81
2021/04/27 04:44:29;;;;;;;11.50;10.07;;;3.50;92.10;;;;;;5143720;27;20472;-82
2021/04/27 04:46:56;;;;;;;15.85;11.70;;;3.70;92.20;;;;;;5147782;27;20018;-81
2021/04/27 04:49:24;;;;;;;;;;;3.80;92.10;;;;;;5136406;27;20102;-81
2021/04/27 04:51:53;;;;;;;16.85;11.52;;;3.90;91.70;;;;;;5115399;27;20321;-82
2021/04/27 04:54:21;;;;;;;14.43;11.70;;;3.90;91.80;;;;;;5134168;27;20034;-82
2021/04/27 04:56:47;;;;;;;14.43;12.80;;;3.90;92.00;;;;;;5133867;27;20444;-81
2021/04/27 04:59:13;;;;;;;16.88;12.95;;;3.90;92.10;;;;;;5133834;27;20070;-81
2021/04/27 05:01:39;;;;;;;17.13;13.35;;;4.00;92.30;;;;;;5132870;27;20376;-84
2021/04/27 05:04:06;;;;;;;14.70;12.25;;;4.00;92.50;;;;;;5138143;27;20395;-84
2021/04/27 05:06:38;;;;;;;19.40;12.93;;;4.10;92.40;;;;;;5134643;27;20129;-84
2021/04/27 05:09:05;;;;;;;16.23;13.30;;;4.20;92.30;;;;;;5135265;27;20505;-83
2021/04/27 05:11:31;;;;;;;15.18;12.52;;;4.30;92.30;;;;;;5134731;27;20041;-82
2021/04/27 05:13:58;;;;;;;17.20;12.77;;;4.40;92.10;;;;;;5134749;27;20062;-82
2021/04/27 05:16:24;;;;;;;17.30;12.90;;;4.50;91.80;;;;;;5137458;27;20038;-80
2021/04/27 05:18:51;;;;;;;15.93;13.55;;;4.50;91.70;;;;;;5123842;28;20038;-84
2021/04/27 05:21:17;;;;;;;16.95;13.13;;;4.60;91.60;;;;;;5134459;27;20354;-84
2021/04/27 05:23:44;;;;;;;16.55;13.65;;;4.60;91.60;;;;;;5134141;27;20054;-84
2021/04/27 05:26:10;;;;;;;15.38;13.80;;;4.70;91.60;;;;;;5133496;27;20099;-84
2021/04/27 05:28:36;;;;;;;18.98;14.77;;;4.70;91.50;;;;;;5134568;27;20027;-83
2021/04/27 05:31:02;;;;;;;20.02;15.35;;;4.60;91.50;;;;;;5133213;28;20072;-83
2021/04/27 05:33:35;;;;;;;16.88;14.30;;;4.60;91.60;;;;;;5133320;27;20027;-85
2021/04/27 05:36:02;;;;;;;18.63;14.30;;;4.60;91.50;;;;;;5119441;27;20019;-83
2021/04/27 05:38:28;;;;;;;16.33;12.20;;;4.50;91.20;;;;;;5133713;27;20023;-83
2021/04/27 05:40:54;;;;;;;15.02;11.40;;;4.40;91.20;;;;;;5119644;27;20274;-85
2021/04/27 05:43:20;;;;;;;14.90;13.30;;;4.30;91.30;;;;;;5137627;27;20015;-83
2021/04/27 05:45:46;;;;;;;16.33;10.20;;;4.40;91.00;;;;;;5137298;27;20030;-85
2021/04/27 05:48:12;;;;;;;12.45;10.30;;;4.30;90.50;;;;;;5137445;27;20023;-85
2021/04/27 05:50:48;;;;;;;13.50;10.05;;;4.20;90.50;;;;;;5137350;27;20023;-86
2021/04/27 05:53:14;;;;;;;12.90;9.18;;;4.30;90.80;;;;;;5118934;27;20030;-83
2021/04/27 05:55:41;;;;;;;10.63;9.57;;;4.40;90.60;;;;;;5137266;27;20472;-83
2021/04/27 05:58:08;;;;;;;9.68;8.73;;;4.40;90.50;;;;;;5136581;27;20041;-83
2021/04/27 06:00:37;;;;;;;9.38;8.02;;;4.40;90.30;;;;;;5137460;27;20042;-84
2021/04/27 06:03:04;;;;;;;11.82;8.65;;;4.40;90.20;;;;;;5136946;27;20430;-83
2021/04/27 06:05:30;;;;;;;11.07;8.87;;;4.40;89.90;;;;;;5138336;27;20051;-84
2021/04/27 06:07:56;;;;;;;11.85;8.55;;;4.40;89.40;;;;;;5140451;27;20043;-83
2021/04/27 06:10:22;;;;;;;9.48;6.10;;;4.40;89.60;;;;;;5121638;27;20114;-85
2021/04/27 06:12:48;;;;;;;8.05;5.63;;;4.30;88.50;;;;;;5119351;27;20047;-85
2021/04/27 06:15:17;;;;;;;12.45;6.70;;;4.20;86.80;;;;;;5116644;27;20022;-83
2021/04/27 06:17:44;;;;;;;7.95;6.40;;;4.20;87.40;;;;;;5126625;27;20015;-83
2021/04/27 06:20:11;;;;;;;9.30;4.68;;;4.10;88.00;;;;;;5136261;27;20031;-84
2021/04/27 06:22:37;;;;;;;;;;;4.10;87.70;;;;;;5137525;27;20038;-83
2021/04/27 06:25:05;;;;;;;5.50;4.88;;;4.10;87.30;;;;;;5106811;27;19911;-84
2021/04/27 06:28:37;;;;;;;8.75;4.93;;;4.00;86.10;;;;;;5087866;27;961337;-84
2021/04/27 06:31:03;;;;;;;7.68;5.70;;;4.00;86.10;;;;;;5089052;28;20032;-85
2021/04/27 06:33:29;;;;;;;5.88;5.25;;;3.90;86.50;;;;;;5091847;28;20390;-84
2021/04/27 06:35:55;;;;;;;7.15;5.90;;;3.90;87.20;;;;;;5089851;28;20024;-83
2021/04/27 06:38:21;;;;;;;8.20;5.75;;;3.90;88.30;;;;;;5090802;28;20358;-83
2021/04/27 06:40:49;;;;;;;6.43;5.03;;;4.00;89.20;;;;;;5091097;28;20028;-85
2021/04/27 06:43:15;;;;;;;7.35;4.78;;;3.90;89.40;;;;;;5091661;28;20048;-82
2021/04/27 06:45:42;;;;;;;8.50;5.05;;;3.80;89.50;;;;;;5095493;28;20027;-85
2021/04/27 06:48:09;;;;;;;5.60;4.72;;;3.70;90.10;;;;;;5094411;28;20123;-84
2021/04/27 06:50:35;;;;;;;8.70;5.87;;;3.70;90.30;;;;;;5092364;28;20070;-86
2021/04/27 06:53:02;;;;;;;4.80;3.90;;;3.80;90.60;;;;;;5091575;28;20360;-85
2021/04/27 06:55:28;;;;;;;6.03;4.00;;;3.80;90.30;;;;;;5093097;28;20532;-84
2021/04/27 06:58:00;;;;;;;5.65;4.40;;;3.70;90.10;;;;;;5090422;28;20035;-85
2021/04/27 07:00:26;;;;;;;10.18;5.93;;;3.70;90.40;;;;;;5088845;28;20020;-83
2021/04/27 07:02:52;;;;;;;7.25;5.75;;;3.70;90.50;;;;;;5089271;28;20468;-84
2021/04/27 07:05:18;;;;;;;9.70;6.03;;;3.70;90.60;;;;;;5089711;28;20029;-85
2021/04/27 07:07:43;;;;;;;7.03;5.72;;;3.70;90.80;;;;;;5089652;28;20036;-84
2021/04/27 07:10:10;;;;;;;8.88;6.90;;;3.60;90.70;;;;;;5089000;28;20059;-85
2021/04/27 07:12:36;;;;;;;8.75;6.68;;;3.60;90.80;;;;;;5089544;28;20032;-83
2021/04/27 07:15:02;;;;;;;6.10;4.70;;;3.50;91.00;;;;;;5089728;28;20020;-85
2021/04/27 07:17:28;;;;;;;5.32;4.07;;;3.50;91.10;;;;;;5094820;28;20039;-83
2021/04/27 07:19:55;;;;;;;9.07;5.00;;;3.50;90.80;;;;;;5095872;28;20095;-84
2021/04/27 07:22:28;;;;;;;6.05;4.90;;;3.40;91.00;;;;;;5090613;28;20028;-85
2021/04/27 07:24:57;;;;;;;8.63;6.35;;;3.30;91.10;;;;;;5088426;28;20021;-83
2021/04/27 07:27:23;;;;;;;9.85;5.72;;;3.30;91.30;;;;;;5089574;28;20036;-84
2021/04/27 07:29:49;;;;;;;7.65;5.88;;;3.30;91.40;;;;;;5099829;28;20470;-84
2021/04/27 07:32:15;;;;;;;5.13;4.05;;;3.20;91.70;;;;;;5108126;28;20020;-84
2021/04/27 07:34:41;;;;;;;5.28;4.70;;;3.20;91.70;;;;;;5108772;28;20419;-84
2021/04/27 07:37:07;;;;;;;16.20;8.60;;;3.10;91.60;;;;;;5103721;28;20161;-84
2021/04/27 07:39:34;;;;;;;8.73;5.20;;;3.10;92.10;;;;;;5088858;28;20054;-84
2021/04/27 07:42:00;;;;;;;7.22;4.18;;;3.20;92.40;;;;;;5095660;28;20042;-85
2021/04/27 07:44:26;;;;;;;8.15;5.43;;;3.20;92.50;;;;;;5095037;28;20468;-84
2021/04/27 07:46:52;;;;;;;7.82;5.32;;;3.20;92.60;;;;;;5095961;28;20047;-86
2021/04/27 07:49:18;;;;;;;6.13;5.30;;;3.10;92.60;;;;;;5095069;28;20045;-85
2021/04/27 07:51:44;;;;;;;7.97;4.80;;;3.10;92.80;;;;;;5094025;28;20028;-84
2021/04/27 07:54:10;;;;;;;7.13;4.60;;;3.10;92.80;;;;;;5095169;28;20016;-83
2021/04/27 07:56:36;;;;;;;6.65;5.10;;;3.20;92.80;;;;;;5096051;28;20020;-85
2021/04/27 07:59:04;;;;;;;6.70;5.55;;;3.10;92.90;;;;;;5096652;28;20029;-85
2021/04/27 08:01:34;;;;;;;7.53;5.90;;;3.20;93.10;;;;;;5094717;28;20649;-84
2021/04/27 08:04:01;;;;;;;9.70;6.38;;;3.20;93.10;;;;;;5093717;28;20392;-83
2021/04/27 08:06:27;;;;;;;8.15;6.35;;;3.20;93.10;;;;;;5095905;28;20093;-84
2021/04/27 08:08:53;;;;;;;9.10;6.78;;;3.20;92.90;;;;;;5095337;28;20028;-84
2021/04/27 08:11:19;;;;;;;10.02;7.07;;;3.20;93.00;;;;;;5096275;28;20019;-84
2021/04/27 08:13:45;;;;;;;10.70;7.82;;;3.10;93.10;;;;;;5095609;28;20103;-85
2021/04/27 08:16:13;;;;;;;9.57;7.07;;;3.10;93.20;;;;;;5095150;28;20019;-87
2021/04/27 08:18:40;;;;;;;8.63;7.28;;;3.10;93.30;;;;;;5095449;28;20020;-84
2021/04/27 08:21:11;;;;;;;9.73;7.22;;;3.00;93.20;;;;;;5084209;28;20016;-83
2021/04/27 08:23:38;;;;;;;8.90;7.75;;;3.10;93.40;;;;;;5096066;28;20012;-85
2021/04/27 08:26:05;;;;;;;9.43;7.90;;;3.00;93.50;;;;;;5095191;28;20104;-84
2021/04/27 08:28:34;;;;;;;9.57;7.72;;;3.10;93.60;;;;;;5094635;28;20536;-83
2021/04/27 08:31:00;;;;;;;8.68;7.45;;;3.10;93.70;;;;;;5094887;28;20669;-83
2021/04/27 08:33:28;;;;;;;11.45;7.78;;;3.10;93.70;;;;;;5095305;28;20052;-84
2021/04/27 08:35:54;;;;;;;11.30;7.90;;;3.10;93.70;;;;;;5095678;28;20446;-84
2021/04/27 08:38:21;;;;;;;11.10;7.93;;;3.10;94.00;;;;;;5095310;28;20028;-86
2021/04/27 08:40:50;;;;;;;13.32;8.13;;;3.30;93.80;;;;;;5096286;28;20028;-82
2021/04/27 08:43:16;;;;;;;9.57;6.43;;;3.30;93.70;;;;;;5098751;28;20024;-84
2021/04/27 08:45:50;;;;;;;8.15;5.95;;;3.40;93.70;;;;;;5095646;28;20024;-83
2021/04/27 08:48:16;;;;;;;5.82;4.68;;;3.40;93.90;;;;;;5093527;28;20119;-83
2021/04/27 08:50:43;;;;;;;8.32;5.28;;;3.40;93.50;;;;;;5093389;28;20417;-84
2021/04/27 08:53:10;;;;;;;9.30;6.90;;;3.30;93.40;;;;;;5096110;28;20028;-85
2021/04/27 08:55:38;;;;;;;8.27;6.22;;;3.40;93.50;;;;;;5096748;28;20039;-84
2021/04/27 08:58:06;;;;;;;4.63;4.10;;;3.40;93.40;;;;;;5106446;28;20024;-85
2021/04/27 09:00:33;;;;;;;6.75;4.90;;;3.30;93.30;;;;;;5105085;28;20543;-83
2021/04/27 09:03:07;;;;;;;6.75;4.63;;;3.30;93.30;;;;;;5098736;28;20028;-85
2021/04/27 09:05:36;;;;;;;6.10;5.20;;;3.30;93.10;;;;;;5081165;28;20029;-85
2021/04/27 09:08:02;;;;;;;6.25;4.93;;;3.30;93.20;;;;;;5097712;28;20481;-83
2021/04/27 09:10:31;;;;;;;5.75;4.65;;;3.30;93.20;;;;;;5095075;28;20051;-83
2021/04/27 09:13:07;;;;;;;7.90;5.25;;;3.30;93.00;;;;;;5096487;28;20064;-82
2021/04/27 09:15:45;;;;;;;9.57;7.22;;;3.20;93.20;;;;;;5099425;28;20030;-84
2021/04/27 09:18:34;;;;;;;6.45;5.05;;;3.30;93.40;;;;;;5099044;28;20027;-84
2021/04/27 09:21:01;;;;;;;7.40;5.22;;;3.20;93.20;;;;;;5102832;28;20733;-83
2021/04/27 09:23:28;;;;;;;7.13;6.15;;;3.10;93.30;;;;;;5099174;28;20107;-84
2021/04/27 09:26:17;;;;;;;6.03;4.82;;;3.20;93.50;;;;;;5096161;28;20381;-85
2021/04/27 09:28:48;;;;;;;6.18;5.05;;;3.20;93.60;;;;;;5096345;28;20485;-85
2021/04/27 09:31:22;;;;;;;9.30;6.65;;;3.30;93.80;;;;;;5083352;28;20091;-85
2021/04/27 09:33:48;;;;;;;6.80;5.93;;;3.50;93.90;;;;;;5093836;28;20167;-84
2021/04/27 09:36:23;;;;;;;6.40;5.80;;;3.60;93.90;;;;;;5094090;28;20077;-84
2021/04/27 09:38:54;;;;;;;6.60;5.35;;;3.60;93.70;;;;;;5095763;28;20061;-87
2021/04/27 09:41:24;;;;;;;6.30;5.20;;;3.70;93.50;;;;;;5097598;28;20058;-84
2021/04/27 09:43:51;;;;;;;11.13;5.53;;;3.70;93.20;;;;;;5094944;28;20028;-84
2021/04/27 09:46:19;;;;;;;7.38;5.93;;;3.70;93.10;;;;;;5094873;28;20024;-84
2021/04/27 09:48:58;;;;;;;10.13;6.07;;;3.60;93.00;;;;;;5093948;28;20397;-85
2021/04/27 09:51:30;;;;;;;8.07;6.95;;;3.50;93.10;;;;;;5094519;28;20111;-83
2021/04/27 09:54:07;;;;;;;9.82;6.38;;;3.50;93.30;;;;;;5093505;28;20015;-84
2021/04/27 09:56:44;;;;;;;8.93;7.43;;;3.60;93.50;;;;;;5093444;28;20049;-85
2021/04/27 09:59:30;;;;;;;8.80;7.03;;;3.60;93.50;;;;;;5093597;28;20028;-85
2021/04/27 10:02:01;;;;;;;7.70;4.72;;;3.60;93.70;;;;;;5093069;28;20358;-84
2021/04/27 10:04:28;;;;;;;5.50;4.65;;;3.60;93.60;;;;;;5079667;28;20030;-83
2021/04/27 10:06:56;;;;;;;5.45;4.60;;;3.70;93.50;;;;;;5092287;28;20504;-86
2021/04/27 10:09:23;;;;;;;7.70;4.97;;;3.70;93.50;;;;;;5092570;28;20095;-85
2021/04/27 10:11:51;;;;;;;5.43;4.50;;;3.80;93.40;;;;;;5093177;28;20107;-85
2021/04/27 10:14:17;;;;;;;7.35;3.97;;;3.80;93.10;;;;;;5091567;28;20012;-84
2021/04/27 10:16:43;;;;;;;4.45;3.38;;;3.80;92.70;;;;;;5091719;28;20031;-85
2021/04/27 10:19:10;;;;;;;5.43;4.18;;;3.70;92.70;;;;;;5088861;28;20020;-86
2021/04/27 10:21:37;;;;;;;5.15;4.05;;;3.60;92.70;;;;;;5093090;28;20111;-85
2021/04/27 10:24:07;;;;;;;;;;;3.60;92.80;;;;;;5093342;28;20016;-84
2021/04/27 10:26:36;;;;;;;6.22;3.83;;;3.50;92.50;;;;;;5091272;28;19965;-84
2021/04/27 10:29:09;;;;;;;5.72;4.57;;;3.40;92.90;;;;;;5093117;28;20051;-85
2021/04/27 10:31:40;;;;;;;11.98;4.97;;;3.40;93.50;;;;;;5081051;28;20503;-85
2021/04/27 10:34:14;;;;;;;4.72;3.20;;;3.50;93.40;;;;;;5093708;28;20028;-85
2021/04/27 10:37:00;;;;;;;6.45;4.28;;;3.50;93.40;;;;;;5096593;28;20473;-86
2021/04/27 10:39:47;;;;;;;6.28;4.18;;;3.50;93.60;;;;;;5096238;28;20009;-84
2021/04/27 10:42:31;;;;;;;3.92;3.33;;;3.60;93.80;;;;;;5091464;28;20404;-84
2021/04/27 10:45:03;;;;;;;7.20;4.05;;;3.80;93.70;;;;;;5092937;28;20020;-84
2021/04/27 10:47:38;;;;;;;3.08;2.67;;;3.70;93.30;;;;;;5079693;28;20396;-84
2021/04/27 10:50:05;;;;;;;7.40;3.55;;;3.70;93.20;;;;;;5094531;28;20477;-83
2021/04/27 10:52:34;;;;;;;9.83;3.90;;;3.70;92.70;;;;;;5099181;28;20064;-84
2021/04/27 10:55:33;;;;;;;3.42;3.08;;;3.60;92.80;;;;;;5093699;28;20090;-83
2021/04/27 10:58:03;;;;;;;4.35;3.20;;;3.60;92.50;;;;;;5030116;28;20032;-84
2021/04/27 11:00:39;;;;;;;3.80;2.95;;;3.60;92.80;;;;;;5088200;28;20030;-82
2021/04/27 11:03:17;;;;;;;5.47;3.83;;;3.60;92.90;;;;;;5092363;28;20071;-83
2021/04/27 11:06:09;;;;;;;5.53;4.25;;;3.50;93.00;;;;;;5092756;28;20385;-84
2021/04/27 11:08:53;;;;;;;6.68;3.88;;;3.60;93.10;;;;;;5093626;28;20031;-84
2021/04/27 11:11:28;;;;;;;5.25;4.25;;;3.60;93.30;;;;;;5080026;28;20016;-85
2021/04/27 11:14:19;;;;;;;6.25;4.03;;;3.70;93.70;;;;;;5094288;28;20028;-85
2021/04/27 11:16:53;;;;;;;5.40;4.15;;;3.80;93.30;;;;;;5094143;28;20107;-85
2021/04/27 11:19:18;;;;;;;5.05;3.95;;;3.90;93.20;;;;;;5099509;28;20473;-84
2021/04/27 11:21:50;;;;;;;4.40;3.92;;;3.80;92.90;;;;;;5102952;28;20079;-85
2021/04/27 11:24:25;;;;;;;5.50;4.07;;;3.80;92.70;;;;;;5102854;28;20020;-84
2021/04/27 11:26:53;;;;;;;6.38;4.18;;;3.90;92.80;;;;;;5098169;28;20119;-86
2021/04/27 11:29:20;;;;;;;;;;;3.90;92.90;;;;;;5100585;28;20400;-86
2021/04/27 11:32:04;;;;;;;6.20;3.92;;;3.80;92.70;;;;;;5077947;28;19904;-84
2021/04/27 11:34:31;;;;;;;5.80;5.20;;;3.80;92.70;;;;;;5092158;28;20058;-84
2021/04/27 11:36:59;;;;;;;9.27;5.25;;;3.80;93.00;;;;;;5096365;28;20016;-84
2021/04/27 11:39:27;;;;;;;8.05;6.10;;;4.00;93.40;;;;;;5095982;28;20020;-83
2021/04/27 11:42:02;;;;;;;7.40;5.85;;;4.10;93.50;;;;;;5095752;28;20020;-83
2021/04/27 11:44:33;;;;;;;6.93;5.68;;;4.20;93.40;;;;;;5097355;28;20020;-84
2021/04/27 11:47:06;;;;;;;8.85;7.20;;;4.20;93.40;;;;;;5096508;28;20036;-85
2021/04/27 11:49:51;;;;;;;7.97;5.68;;;4.20;93.30;;;;;;5097045;28;20561;-85
2021/04/27 11:52:37;;;;;;;8.75;5.97;;;4.20;93.60;;;;;;5101891;28;20021;-84
2021/04/27 11:55:05;;;;;;;9.27;6.38;;;4.20;93.40;;;;;;5106820;28;20027;-83
2021/04/27 11:57:31;;;;;;;7.82;6.07;;;4.30;93.60;;;;;;5102766;28;20035;-83
2021/04/27 12:00:00;;;;;;;6.95;5.10;;;4.30;93.50;;;;;;5085401;28;20478;-85
2021/04/27 12:02:32;;;;;;;9.15;6.40;;;4.30;93.60;;;;;;5100186;28;20063;-83
2021/04/27 12:04:59;;;;;;;8.65;6.63;;;4.20;93.40;;;;;;5097699;28;20023;-84
2021/04/27 12:07:29;;;;;;;8.13;6.33;;;4.30;93.40;;;;;;5095183;28;20132;-85
2021/04/27 12:09:57;;;;;;;7.43;6.15;;;4.30;93.50;;;;;;5093843;28;20120;-85
2021/04/27 12:12:24;;;;;;;6.25;5.20;;;4.30;93.60;;;;;;5095882;28;20098;-84
2021/04/27 12:14:51;;;;;;;6.65;5.50;;;4.30;93.20;;;;;;5094761;28;20024;-84
2021/04/27 12:17:34;;;;;;;6.57;4.88;;;4.20;92.90;;;;;;5094072;28;20542;-83
2021/04/27 12:20:18;;;;;;;8.75;6.97;;;4.20;93.00;;;;;;5095340;28;20032;-84
2021/04/27 12:22:55;;;;;;;6.90;5.55;;;4.30;93.30;;;;;;5094689;28;20031;-85
2021/04/27 12:25:27;;;;;;;6.97;6.22;;;4.40;93.50;;;;;;5094700;28;20016;-84
2021/04/27 12:28:00;;;;;;;6.10;5.05;;;4.50;93.50;;;;;;5095056;28;20040;-85
2021/04/27 12:30:26;;;;;;;4.95;4.28;;;4.60;93.30;;;;;;5086456;28;20037;-84
2021/04/27 12:32:59;;;;;;;5.30;4.45;;;4.60;93.10;;;;;;5095280;28;20058;-84
2021/04/27 12:35:31;;;;;;;8.70;6.30;;;4.50;92.90;;;;;;5094842;28;20026;-84
2021/04/27 12:37:57;;;;;;;3.65;2.92;;;4.50;93.10;;;;;;5093001;28;20020;-85
2021/04/27 12:40:24;;;;;;;6.70;4.47;;;4.50;92.90;;;;;;5078671;28;20069;-85
2021/04/27 12:42:54;;;;;;;4.63;3.55;;;4.40;92.10;;;;;;5094158;28;20028;-85
2021/04/27 12:45:20;;;;;;;8.13;4.43;;;4.40;92.40;;;;;;5093988;28;20425;-84
2021/04/27 12:47:49;;;;;;;5.53;4.20;;;4.40;92.50;;;;;;5093892;28;20035;-84
2021/04/27 12:50:20;;;;;;;6.70;3.97;;;4.50;92.60;;;;;;5093824;28;20020;-83
2021/04/27 12:53:01;;;;;;;8.05;4.35;;;4.50;92.20;;;;;;5098773;28;20028;-85
2021/04/27 12:55:30;;;;;;;8.05;4.82;;;4.40;91.90;;;;;;5094755;28;20032;-84
2021/04/27 12:58:11;;;;;;;12.80;8.93;;;4.30;92.10;;;;;;5094790;28;20091;-86
2021/04/27 13:00:49;;;;;;;27.45;15.57;;;4.30;92.50;;;;;;5093828;28;20023;-83
2021/04/27 13:03:18;;;;;;;29.50;17.42;;;4.40;92.70;;;;;;5094945;28;20448;-84
2021/04/27 13:05:44;;;;;;;25.83;16.92;;;4.50;92.50;;;;;;5094798;28;20069;-83